createdAt,value
2022-08-19T00:02:00.324Z,15.15
2022-08-19T00:04:54.751Z,15.15
2022-08-19T00:07:24.370Z,15.55
2022-08-19T00:09:52.641Z,15.60
2022-08-19T00:12:20.976Z,15.63
2022-08-19T00:14:49.167Z,14.85
2022-08-19T00:17:17.494Z,15.38
2022-08-19T00:19:45.726Z,15.35
2022-08-19T00:22:14.115Z,15.38
2022-08-19T00:24:50.749Z,16.65
2022-08-19T00:27:26.111Z,15.10
2022-08-19T00:29:55.330Z,16.52
2022-08-19T00:32:23.843Z,15.60
2022-08-19T00:34:54.271Z,16.17
2022-08-19T00:37:23.899Z,16.67
2022-08-19T00:39:53.878Z,16.95
2022-08-19T00:42:23.969Z,18.08
2022-08-19T00:44:52.574Z,17.33
2022-08-19T00:47:20.893Z,18.45
2022-08-19T00:49:55.272Z,20.05
2022-08-19T00:52:29.876Z,18.55
2022-08-19T00:55:00.373Z,18.83
2022-08-19T00:57:58.913Z,18.75
2022-08-19T01:00:30.607Z,19.40
2022-08-19T01:02:59.178Z,19.73
2022-08-19T01:05:30.124Z,19.10
2022-08-19T01:08:01.575Z,19.00
2022-08-19T01:10:36.876Z,19.25
2022-08-19T01:13:06.554Z,18.40
2022-08-19T01:15:47.540Z,18.98
2022-08-19T01:18:19.706Z,19.13
2022-08-19T01:20:48.852Z,18.50
2022-08-19T01:23:18.681Z,18.70
2022-08-19T01:25:52.366Z,18.17
2022-08-19T01:28:33.836Z,19.52
2022-08-19T01:31:07.056Z,19.17
2022-08-19T01:33:36.468Z,19.00
2022-08-19T01:36:11.728Z,19.17
2022-08-19T01:38:45.834Z,19.05
2022-08-19T01:41:14.814Z,18.13
2022-08-19T01:44:13.160Z,19.35
2022-08-19T01:46:31.649Z,19.30
2022-08-19T01:49:00.426Z,19.17
2022-08-19T01:51:29.154Z,18.95
2022-08-19T01:54:08.422Z,19.67
2022-08-19T01:56:37.286Z,18.65
2022-08-19T01:59:14.675Z,17.65
2022-08-19T02:01:43.542Z,18.48
2022-08-19T02:04:17.869Z,18.83
2022-08-19T02:06:51.552Z,19.25
2022-08-19T02:09:21.164Z,17.80
2022-08-19T02:11:49.466Z,17.35
2022-08-19T02:14:17.683Z,19.48
2022-08-19T02:16:45.966Z,18.27
2022-08-19T02:19:14.214Z,17.63
2022-08-19T02:21:42.453Z,17.88
2022-08-19T02:24:10.689Z,16.88
2022-08-19T02:26:40.850Z,17.73
2022-08-19T02:29:10.242Z,15.88
2022-08-19T02:31:38.730Z,16.90
2022-08-19T02:34:07.073Z,18.15
2022-08-19T02:36:35.473Z,17.63
2022-08-19T02:39:03.650Z,17.33
2022-08-19T02:41:34.715Z,17.80
2022-08-19T02:44:29.968Z,17.55
2022-08-19T02:46:54.343Z,17.35
2022-08-19T02:49:22.646Z,18.45
2022-08-19T02:51:50.947Z,16.80
2022-08-19T02:54:19.424Z,17.25
2022-08-19T02:56:47.759Z,16.88
2022-08-19T02:59:17.426Z,17.48
2022-08-19T03:01:48.687Z,17.13
2022-08-19T03:04:18.236Z,16.80
2022-08-19T03:06:48.660Z,16.10
2022-08-19T03:09:17.661Z,16.38
2022-08-19T03:11:46.402Z,16.52
2022-08-19T03:14:19.070Z,16.95
2022-08-19T03:16:50.497Z,17.80
2022-08-19T03:19:22.215Z,17.92
2022-08-19T03:21:51.635Z,16.73
2022-08-19T03:24:21.138Z,17.23
2022-08-19T03:26:58.312Z,16.65
2022-08-19T03:29:31.659Z,16.50
2022-08-19T03:32:01.791Z,16.38
2022-08-19T03:34:32.855Z,17.63
2022-08-19T03:37:07.935Z,17.70
2022-08-19T03:39:38.743Z,17.55
2022-08-19T03:42:31.994Z,17.58
2022-08-19T03:44:57.171Z,16.92
2022-08-19T03:47:25.770Z,18.25
2022-08-19T03:49:54.035Z,17.90
2022-08-19T03:52:22.367Z,17.35
2022-08-19T03:54:50.698Z,17.52
2022-08-19T03:57:18.990Z,18.02
2022-08-19T03:59:47.259Z,19.20
2022-08-19T04:02:16.936Z,17.02
2022-08-19T04:04:46.410Z,16.98
2022-08-19T04:07:17.343Z,16.80
2022-08-19T04:09:46.362Z,17.20
2022-08-19T04:12:14.663Z,16.63
2022-08-19T04:14:43.476Z,17.38
2022-08-19T04:17:12.128Z,16.60
2022-08-19T04:19:42.747Z,16.83
2022-08-19T04:22:12.261Z,16.58
2022-08-19T04:24:40.566Z,16.60
2022-08-19T04:27:09.015Z,16.92
2022-08-19T04:29:40.358Z,16.30
2022-08-19T04:32:09.901Z,16.40
2022-08-19T04:35:02.195Z,16.33
2022-08-19T04:37:35.269Z,16.98
2022-08-19T04:40:24.717Z,18.05
2022-08-19T04:42:54.560Z,17.60
2022-08-19T04:45:23.407Z,16.65
2022-08-19T04:47:58.675Z,15.93
2022-08-19T04:50:46.725Z,17.55
2022-08-19T04:53:15.005Z,16.95
2022-08-19T04:55:44.770Z,17.55
2022-08-19T04:58:13.205Z,17.02
2022-08-19T05:00:42.161Z,16.00
2022-08-19T05:03:10.506Z,15.90
2022-08-19T05:05:44.601Z,15.40
2022-08-19T05:08:19.522Z,16.75
2022-08-19T05:11:00.108Z,16.00
2022-08-19T05:13:28.802Z,16.05
2022-08-19T05:15:58.654Z,15.65
2022-08-19T05:18:45.650Z,15.85
2022-08-19T05:21:35.302Z,15.20
2022-08-19T05:24:09.440Z,16.58
2022-08-19T05:26:37.971Z,16.10
2022-08-19T05:29:08.214Z,15.50
2022-08-19T05:31:39.436Z,16.05
2022-08-19T05:34:18.258Z,15.80
2022-08-19T05:36:48.706Z,14.73
2022-08-19T05:39:21.645Z,15.93
2022-08-19T05:41:55.201Z,15.02
2022-08-19T05:44:23.770Z,15.20
2022-08-19T05:46:53.835Z,15.57
2022-08-19T05:49:24.678Z,16.27
2022-08-19T05:51:53.732Z,17.50
2022-08-19T05:54:24.928Z,15.05
2022-08-19T05:56:54.537Z,15.95
2022-08-19T05:59:24.835Z,16.55
2022-08-19T06:01:55.377Z,15.90
2022-08-19T06:04:24.760Z,15.65
2022-08-19T06:06:55.284Z,16.70
2022-08-19T06:09:25.196Z,16.20
2022-08-19T06:11:56.164Z,16.42
2022-08-19T06:14:27.762Z,16.98
2022-08-19T06:16:56.841Z,16.25
2022-08-19T06:19:26.431Z,15.68
2022-08-19T06:21:55.251Z,15.18
2022-08-19T06:24:28.322Z,16.05
2022-08-19T06:27:01.522Z,14.68
2022-08-19T06:29:33.450Z,15.77
2022-08-19T06:32:04.779Z,16.63
2022-08-19T06:34:36.210Z,14.88
2022-08-19T06:37:06.674Z,16.20
2022-08-19T06:39:39.421Z,15.50
2022-08-19T06:42:12.490Z,16.52
2022-08-19T06:44:48.815Z,15.98
2022-08-19T06:47:23.803Z,15.90
2022-08-19T06:50:03.572Z,17.27
2022-08-19T06:52:34.127Z,15.48
2022-08-19T06:55:06.170Z,17.17
2022-08-19T06:57:35.934Z,15.73
2022-08-19T07:00:13.005Z,14.82
2022-08-19T07:02:44.708Z,16.70
2022-08-19T07:05:16.988Z,16.08
2022-08-19T07:07:45.319Z,16.45
2022-08-19T07:10:17.503Z,15.65
2022-08-19T07:12:45.765Z,14.50
2022-08-19T07:15:16.529Z,14.68
2022-08-19T07:17:44.838Z,15.10
2022-08-19T07:20:16.365Z,15.85
2022-08-19T07:22:47.230Z,16.08
2022-08-19T07:25:18.805Z,16.10
2022-08-19T07:27:54.550Z,15.02
2022-08-19T07:30:24.169Z,15.20
2022-08-19T07:32:54.741Z,16.02
2022-08-19T07:35:22.997Z,16.23
2022-08-19T07:37:51.643Z,17.33
2022-08-19T07:40:21.450Z,16.65
2022-08-19T07:42:49.727Z,16.33
2022-08-19T07:45:18.106Z,15.40
2022-08-19T07:47:49.427Z,15.07
2022-08-19T07:50:21.496Z,16.15
2022-08-19T07:52:51.457Z,14.95
2022-08-19T07:55:42.652Z,15.88
2022-08-19T07:58:13.365Z,14.60
2022-08-19T08:00:42.090Z,15.05
2022-08-19T08:03:10.574Z,14.95
2022-08-19T08:05:56.505Z,14.40
2022-08-19T08:08:44.364Z,14.27
2022-08-19T08:11:19.894Z,13.65
2022-08-19T08:14:01.061Z,14.02
2022-08-19T08:16:46.800Z,14.20
2022-08-19T08:19:22.961Z,14.55
2022-08-19T08:21:55.630Z,14.52
2022-08-19T08:24:28.352Z,14.50
2022-08-19T08:26:59.982Z,14.95
2022-08-19T08:29:34.722Z,13.40
2022-08-19T08:32:04.516Z,14.50
2022-08-19T08:34:43.081Z,14.15
2022-08-19T08:37:11.345Z,15.00
2022-08-19T08:39:40.142Z,14.73
2022-08-19T08:42:18.579Z,14.15
2022-08-19T08:47:38.205Z,14.05
2022-08-19T08:50:23.690Z,13.25
2022-08-19T08:52:58.990Z,12.45
2022-08-19T08:55:37.098Z,13.95
2022-08-19T08:58:14.899Z,13.77
2022-08-19T09:00:48.365Z,14.02
2022-08-19T09:03:21.473Z,13.98
2022-08-19T09:06:02.681Z,13.13
2022-08-19T09:08:47.641Z,13.88
2022-08-19T09:11:42.366Z,13.73
2022-08-19T09:14:49.207Z,14.10
2022-08-19T09:17:16.322Z,12.88
2022-08-19T09:19:58.229Z,14.77
2022-08-19T09:22:28.034Z,13.95
2022-08-19T09:24:57.243Z,14.70
2022-08-19T09:27:42.505Z,14.52
2022-08-19T09:30:18.285Z,13.70
2022-08-19T09:32:47.458Z,12.75
2022-08-19T09:35:24.309Z,13.75
2022-08-19T09:37:57.819Z,14.88
2022-08-19T09:40:30.350Z,15.43
2022-08-19T09:43:01.623Z,14.45
2022-08-19T09:45:32.083Z,14.65
2022-08-19T09:48:00.304Z,15.00
2022-08-19T09:50:33.155Z,14.52
2022-08-19T09:53:03.278Z,14.20
2022-08-19T09:55:32.745Z,15.30
2022-08-19T09:58:03.080Z,14.88
2022-08-19T10:00:32.949Z,14.45
2022-08-19T10:03:30.211Z,15.85
2022-08-19T10:06:01.625Z,15.02
2022-08-19T10:08:33.887Z,14.85
2022-08-19T10:11:28.710Z,16.08
2022-08-19T10:13:51.685Z,15.13
2022-08-19T10:16:26.026Z,16.23
2022-08-19T10:19:00.275Z,15.02
2022-08-19T10:21:36.264Z,15.98
2022-08-19T10:24:07.406Z,15.70
2022-08-19T10:26:42.597Z,16.60
2022-08-19T10:29:10.844Z,16.58
2022-08-19T10:32:00.510Z,18.48
2022-08-19T10:34:30.749Z,16.45
2022-08-19T10:37:01.986Z,16.75
2022-08-19T10:39:33.696Z,17.25
2022-08-19T10:42:14.137Z,17.33
2022-08-19T10:44:43.212Z,17.23
2022-08-19T10:47:17.999Z,17.70
2022-08-19T10:50:12.399Z,15.65
2022-08-19T10:52:49.875Z,16.95
2022-08-19T10:55:39.352Z,18.23
2022-08-19T10:58:14.084Z,17.23
2022-08-19T11:00:43.936Z,18.02
2022-08-19T11:03:13.910Z,16.52
2022-08-19T11:05:42.296Z,17.00
2022-08-19T11:08:22.604Z,16.15
2022-08-19T11:10:54.537Z,16.77
2022-08-19T11:13:24.255Z,17.08
2022-08-19T11:16:05.094Z,17.77
2022-08-19T11:18:38.707Z,16.35
2022-08-19T11:21:13.284Z,17.02
2022-08-19T11:23:42.555Z,16.30
2022-08-19T11:26:11.674Z,17.80
2022-08-19T11:28:40.532Z,17.17
2022-08-19T11:31:13.657Z,17.02
2022-08-19T11:33:47.097Z,17.02
2022-08-19T11:36:17.142Z,17.92
2022-08-19T11:38:45.888Z,17.02
2022-08-19T11:41:14.176Z,18.38
2022-08-19T11:43:42.425Z,17.95
2022-08-19T11:46:13.379Z,17.58
2022-08-19T11:48:43.807Z,17.75
2022-08-19T11:51:22.504Z,17.10
2022-08-19T11:53:51.293Z,17.50
2022-08-19T11:56:21.087Z,18.20
2022-08-19T11:58:49.952Z,17.77
2022-08-19T12:01:26.581Z,17.05
2022-08-19T12:03:58.614Z,17.67
2022-08-19T12:07:03.124Z,16.92
2022-08-19T12:09:32.767Z,18.33
2022-08-19T12:12:01.817Z,17.98
2022-08-19T12:14:31.833Z,18.10
2022-08-19T12:17:01.028Z,18.15
2022-08-19T12:19:30.658Z,17.67
2022-08-19T12:22:02.493Z,17.48
2022-08-19T12:24:33.189Z,17.25
2022-08-19T12:27:03.213Z,17.30
2022-08-19T12:29:31.793Z,18.70
2022-08-19T12:32:02.295Z,19.77
2022-08-19T12:34:34.781Z,18.33
2022-08-19T12:37:06.901Z,19.02
2022-08-19T12:39:39.227Z,18.23
2022-08-19T12:42:10.043Z,18.45
2022-08-19T12:44:41.558Z,17.83
2022-08-19T12:47:12.438Z,18.33
2022-08-19T12:49:54.022Z,17.98
2022-08-19T12:52:25.651Z,18.00
2022-08-19T12:54:55.292Z,17.95
2022-08-19T12:57:32.568Z,17.55
2022-08-19T13:00:07.341Z,18.77
2022-08-19T13:02:38.804Z,17.20
2022-08-19T13:05:14.301Z,17.45
2022-08-19T13:07:44.761Z,18.02
2022-08-19T13:10:20.540Z,17.83
2022-08-19T13:12:52.231Z,17.92
2022-08-19T13:15:23.991Z,19.30
2022-08-19T13:17:54.936Z,18.73
2022-08-19T13:20:25.631Z,18.75
2022-08-19T13:22:54.198Z,18.95
2022-08-19T13:25:23.129Z,18.13
2022-08-19T13:27:52.903Z,16.80
2022-08-19T13:30:40.225Z,17.70
2022-08-19T13:33:18.678Z,19.08
2022-08-19T13:35:51.031Z,18.58
2022-08-19T13:38:23.124Z,17.77
2022-08-19T13:40:53.653Z,18.13
2022-08-19T13:43:24.010Z,17.58
2022-08-19T13:45:53.606Z,17.58
2022-08-19T13:48:21.947Z,17.00
2022-08-19T13:50:51.621Z,17.45
2022-08-19T13:53:20.477Z,15.60
2022-08-19T13:55:49.605Z,17.13
2022-08-19T13:58:17.827Z,16.98
2022-08-19T14:00:49.274Z,17.25
2022-08-19T14:03:17.971Z,16.30
2022-08-19T14:05:47.102Z,16.52
2022-08-19T14:08:16.958Z,16.35
2022-08-19T14:10:46.267Z,15.10
2022-08-19T14:13:18.271Z,16.67
2022-08-19T14:15:48.248Z,16.42
2022-08-19T14:18:17.831Z,16.40
2022-08-19T14:20:47.118Z,15.55
2022-08-19T14:23:16.791Z,17.33
2022-08-19T14:25:45.715Z,15.65
2022-08-19T14:28:13.948Z,14.38
2022-08-19T14:30:42.186Z,16.58
2022-08-19T14:33:10.598Z,15.38
2022-08-19T14:35:39.386Z,15.20
2022-08-19T14:38:22.105Z,14.90
2022-08-19T14:40:58.196Z,15.80
2022-08-19T14:43:26.420Z,15.45
2022-08-19T14:45:54.653Z,14.80
2022-08-19T14:48:22.856Z,14.70
2022-08-19T14:50:57.518Z,15.45
2022-08-19T14:53:27.207Z,15.30
2022-08-19T14:55:57.823Z,14.98
2022-08-19T14:58:29.059Z,15.55
2022-08-19T15:01:01.038Z,15.98
2022-08-19T15:03:30.279Z,15.57
2022-08-19T15:05:59.222Z,16.27
2022-08-19T15:08:31.829Z,15.38
2022-08-19T15:11:01.080Z,17.05
2022-08-19T15:13:31.217Z,16.35
2022-08-19T15:15:59.610Z,16.77
2022-08-19T15:18:27.918Z,16.45
2022-08-19T15:20:57.806Z,17.17
2022-08-19T15:23:26.152Z,15.43
2022-08-19T15:25:56.545Z,16.20
2022-08-19T15:28:27.356Z,14.98
2022-08-19T15:30:55.783Z,15.43
2022-08-19T15:33:24.449Z,15.55
2022-08-19T15:35:54.014Z,15.80
2022-08-19T15:38:24.410Z,16.42
2022-08-19T15:40:52.911Z,15.68
2022-08-19T15:43:23.353Z,15.55
2022-08-19T15:45:51.579Z,15.93
2022-08-19T15:48:19.826Z,16.55
2022-08-19T15:50:48.229Z,16.73
2022-08-19T15:53:17.259Z,15.95
2022-08-19T15:55:48.546Z,17.15
2022-08-19T15:58:34.916Z,16.33
2022-08-19T16:01:26.910Z,16.67
2022-08-19T16:04:16.258Z,15.43
2022-08-19T16:06:47.529Z,15.95
2022-08-19T16:09:17.231Z,14.75
2022-08-19T16:11:56.543Z,14.27
2022-08-19T16:14:26.247Z,14.70
2022-08-19T16:16:56.915Z,14.65
2022-08-19T16:19:25.804Z,13.70
2022-08-19T16:21:56.512Z,14.60
2022-08-19T16:24:27.963Z,13.00
2022-08-19T16:26:57.532Z,15.50
2022-08-19T16:29:34.209Z,13.65
2022-08-19T16:32:12.746Z,14.32
2022-08-19T16:34:43.079Z,13.38
2022-08-19T16:37:12.646Z,14.10
2022-08-19T16:39:43.619Z,14.15
2022-08-19T16:42:14.018Z,13.48
2022-08-19T16:44:45.030Z,12.40
2022-08-19T16:47:16.647Z,13.45
2022-08-19T16:49:52.465Z,13.73
2022-08-19T16:52:27.178Z,12.10
2022-08-19T16:54:55.919Z,13.23
2022-08-19T16:57:24.915Z,12.55
2022-08-19T16:59:53.375Z,14.20
2022-08-19T17:02:30.857Z,13.38
2022-08-19T17:04:59.475Z,13.43
2022-08-19T17:07:28.418Z,13.25
2022-08-19T17:09:58.670Z,12.20
2022-08-19T17:12:30.512Z,13.02
2022-08-19T17:15:02.594Z,11.95
2022-08-19T17:17:32.991Z,12.45
2022-08-19T17:20:02.706Z,13.45
2022-08-19T17:22:31.264Z,12.85
2022-08-19T17:24:59.561Z,13.20
2022-08-19T17:27:31.631Z,12.98
2022-08-19T17:30:02.638Z,12.75
2022-08-19T17:32:35.559Z,13.55
2022-08-19T17:35:05.142Z,13.52
2022-08-19T17:37:34.195Z,12.93
2022-08-19T17:40:03.643Z,13.15
2022-08-19T17:42:31.965Z,12.98
2022-08-19T17:45:00.548Z,12.40
2022-08-19T17:47:37.614Z,12.32
2022-08-19T17:50:07.156Z,12.50
2022-08-19T17:52:35.501Z,11.18
2022-08-19T17:55:03.847Z,12.32
2022-08-19T17:57:32.255Z,11.73
2022-08-19T18:00:00.748Z,12.10
2022-08-19T18:02:33.106Z,12.68
2022-08-19T18:05:13.062Z,12.70
2022-08-19T18:07:42.009Z,12.50
2022-08-19T18:10:14.157Z,12.30
2022-08-19T18:12:44.560Z,13.05
2022-08-19T18:15:13.343Z,13.27
2022-08-19T18:17:42.078Z,13.65
2022-08-19T18:20:15.365Z,12.63
2022-08-19T18:22:46.146Z,13.27
2022-08-19T18:25:19.166Z,14.20
2022-08-19T18:27:48.712Z,12.70
2022-08-19T18:30:17.469Z,13.95
2022-08-19T18:32:49.307Z,12.50
2022-08-19T18:35:22.663Z,11.90
2022-08-19T18:37:51.011Z,12.30
2022-08-19T18:40:40.382Z,12.40
2022-08-19T18:43:26.767Z,11.73
2022-08-19T18:46:12.875Z,12.60
2022-08-19T18:48:58.882Z,12.23
2022-08-19T18:51:30.463Z,12.38
2022-08-19T18:53:59.683Z,12.50
2022-08-19T18:56:32.425Z,11.63
2022-08-19T18:59:03.299Z,12.73
2022-08-19T19:01:39.429Z,12.90
2022-08-19T19:04:11.505Z,12.65
2022-08-19T19:06:43.177Z,11.90
2022-08-19T19:09:16.417Z,12.48
2022-08-19T19:11:48.371Z,12.82
2022-08-19T19:14:45.722Z,12.52
2022-08-19T19:17:14.618Z,11.93
2022-08-19T19:19:44.322Z,12.27
2022-08-19T19:22:18.300Z,12.40
2022-08-19T19:24:46.837Z,12.50
2022-08-19T19:27:20.270Z,13.07
2022-08-19T19:29:52.034Z,12.18
2022-08-19T19:32:24.259Z,12.75
2022-08-19T19:34:52.836Z,11.82
2022-08-19T19:37:22.613Z,12.80
2022-08-19T19:39:50.960Z,13.45
2022-08-19T19:42:22.711Z,12.50
2022-08-19T19:44:54.659Z,12.98
2022-08-19T19:47:28.463Z,13.25
2022-08-19T19:50:14.161Z,12.63
2022-08-19T19:52:46.653Z,12.77
2022-08-19T19:55:18.826Z,14.38
2022-08-19T19:57:47.786Z,13.95
2022-08-19T20:00:18.971Z,13.10
2022-08-19T20:02:50.159Z,12.43
2022-08-19T20:05:21.159Z,12.93
2022-08-19T20:08:09.599Z,12.73
2022-08-19T20:10:38.287Z,12.50
2022-08-19T20:13:07.698Z,12.80
2022-08-19T20:15:41.739Z,13.07
2022-08-19T20:18:13.381Z,11.85
2022-08-19T20:20:42.143Z,12.70
2022-08-19T20:23:12.006Z,11.88
2022-08-19T20:25:40.828Z,12.27
2022-08-19T20:28:09.878Z,12.18
2022-08-19T20:30:39.991Z,12.95
2022-08-19T20:33:14.865Z,12.95
2022-08-19T20:35:46.222Z,11.70
2022-08-19T20:38:15.893Z,12.50
2022-08-19T20:40:44.183Z,13.10
2022-08-19T20:43:16.166Z,12.27
2022-08-19T20:45:44.818Z,13.45
2022-08-19T20:48:13.662Z,11.88
2022-08-19T20:50:42.423Z,11.50
2022-08-19T20:53:13.969Z,11.10
2022-08-19T20:55:45.307Z,12.65
2022-08-19T20:58:15.215Z,11.95
2022-08-19T21:00:45.600Z,11.30
2022-08-19T21:03:15.332Z,10.82
2022-08-19T21:05:43.811Z,12.13
2022-08-19T21:08:12.145Z,12.18
2022-08-19T21:10:44.644Z,11.93
2022-08-19T21:13:12.970Z,12.27
2022-08-19T21:15:43.281Z,11.60
2022-08-19T21:18:12.860Z,12.35
2022-08-19T21:20:42.718Z,11.77
2022-08-19T21:23:14.027Z,13.07
2022-08-19T21:25:54.573Z,11.55
2022-08-19T21:28:34.339Z,12.20
2022-08-19T21:31:10.303Z,12.55
2022-08-19T21:33:39.149Z,12.45
2022-08-19T21:36:08.635Z,11.50
2022-08-19T21:38:37.382Z,12.13
2022-08-19T21:41:07.774Z,11.57
2022-08-19T21:43:37.387Z,11.82
2022-08-19T21:46:06.355Z,11.40
2022-08-19T21:48:34.777Z,11.48
2022-08-19T21:51:03.173Z,11.65
2022-08-19T21:53:34.521Z,12.30
2022-08-19T21:56:03.382Z,12.98
2022-08-19T21:58:33.554Z,11.30
2022-08-19T22:01:06.050Z,11.52
2022-08-19T22:03:36.337Z,11.68
2022-08-19T22:06:09.387Z,12.30
2022-08-19T22:08:37.835Z,11.73
2022-08-19T22:11:06.387Z,12.10
2022-08-19T22:13:40.091Z,13.30
2022-08-19T22:16:10.637Z,11.57
2022-08-19T22:18:39.191Z,12.25
2022-08-19T22:21:11.924Z,12.63
2022-08-19T22:23:41.842Z,11.50
2022-08-19T22:26:10.122Z,11.73
2022-08-19T22:28:39.855Z,11.60
2022-08-19T22:31:09.845Z,11.80
2022-08-19T22:33:38.604Z,12.18
2022-08-19T22:36:08.563Z,10.30
2022-08-19T22:38:38.358Z,11.43
2022-08-19T22:41:07.970Z,12.07
2022-08-19T22:43:36.905Z,11.48
2022-08-19T22:46:17.726Z,11.52
2022-08-19T22:48:47.993Z,11.48
2022-08-19T22:51:41.804Z,11.43
2022-08-19T22:54:10.097Z,11.38
2022-08-19T22:56:38.384Z,12.18
2022-08-19T22:59:08.608Z,11.32
2022-08-19T23:01:44.340Z,11.20
2022-08-19T23:04:12.657Z,11.50
2022-08-19T23:06:42.234Z,11.60
2022-08-19T23:09:16.459Z,11.55
2022-08-19T23:11:45.973Z,12.02
2022-08-19T23:14:15.839Z,11.93
2022-08-19T23:16:50.753Z,12.38
2022-08-19T23:19:21.616Z,13.30
2022-08-19T23:21:50.087Z,12.02
2022-08-19T23:24:18.342Z,12.07
2022-08-19T23:27:00.613Z,12.23
2022-08-19T23:29:47.343Z,11.75
2022-08-19T23:32:18.374Z,12.45
2022-08-19T23:34:47.463Z,11.68
2022-08-19T23:37:16.045Z,12.50
2022-08-19T23:39:45.176Z,11.85
2022-08-19T23:42:14.495Z,12.18
2022-08-19T23:44:51.546Z,12.20
2022-08-19T23:47:22.161Z,11.98
2022-08-19T23:49:50.739Z,12.02
2022-08-19T23:52:19.343Z,11.85
2022-08-19T23:54:47.940Z,12.63
2022-08-19T23:57:16.737Z,12.38
2022-08-19T23:59:46.161Z,13.13
